sensor_id;sensor_type;location;lat;lon;timestamp;P1;durP1;ratioP1;P2;durP2;ratioP2
44989;SDS011;30723;51.206;3.326;2023-03-08T00:01:19;45.83;;;23.73;;
44989;SDS011;30723;51.206;3.326;2023-03-08T00:03:49;43.67;;;24.08;;
44989;SDS011;30723;51.206;3.326;2023-03-08T00:06:20;48.13;;;23.85;;
44989;SDS011;30723;51.206;3.326;2023-03-08T00:08:46;51.75;;;24.92;;
44989;SDS011;30723;51.206;3.326;2023-03-08T00:11:13;49.58;;;23.10;;
44989;SDS011;30723;51.206;3.326;2023-03-08T00:13:41;48.72;;;24.35;;
44989;SDS011;30723;51.206;3.326;2023-03-08T00:16:08;49.92;;;23.95;;
44989;SDS011;30723;51.206;3.326;2023-03-08T00:18:37;47.13;;;24.17;;
44989;SDS011;30723;51.206;3.326;2023-03-08T00:21:05;47.85;;;23.60;;
44989;SDS011;30723;51.206;3.326;2023-03-08T00:23:33;44.58;;;23.80;;
44989;SDS011;30723;51.206;3.326;2023-03-08T00:26:07;50.83;;;24.25;;
44989;SDS011;30723;51.206;3.326;2023-03-08T00:28:35;49.80;;;24.08;;
44989;SDS011;30723;51.206;3.326;2023-03-08T00:31:04;51.70;;;25.55;;
44989;SDS011;30723;51.206;3.326;2023-03-08T00:33:35;49.67;;;25.20;;
44989;SDS011;30723;51.206;3.326;2023-03-08T00:36:03;50.88;;;24.08;;
44989;SDS011;30723;51.206;3.326;2023-03-08T00:38:31;46.83;;;23.88;;
44989;SDS011;30723;51.206;3.326;2023-03-08T00:40:59;49.67;;;24.55;;
44989;SDS011;30723;51.206;3.326;2023-03-08T00:43:26;56.00;;;24.95;;
44989;SDS011;30723;51.206;3.326;2023-03-08T00:45:53;47.35;;;23.90;;
44989;SDS011;30723;51.206;3.326;2023-03-08T00:48:20;49.28;;;24.40;;
44989;SDS011;30723;51.206;3.326;2023-03-08T00:50:47;52.50;;;25.83;;
44989;SDS011;30723;51.206;3.326;2023-03-08T00:53:13;52.70;;;25.38;;
44989;SDS011;30723;51.206;3.326;2023-03-08T00:55:46;49.67;;;25.02;;
44989;SDS011;30723;51.206;3.326;2023-03-08T00:58:17;49.50;;;25.85;;
44989;SDS011;30723;51.206;3.326;2023-03-08T01:00:44;49.55;;;26.20;;
44989;SDS011;30723;51.206;3.326;2023-03-08T01:03:10;54.17;;;27.08;;
44989;SDS011;30723;51.206;3.326;2023-03-08T01:05:40;56.10;;;26.00;;
44989;SDS011;30723;51.206;3.326;2023-03-08T01:08:07;55.50;;;27.67;;
44989;SDS011;30723;51.206;3.326;2023-03-08T01:10:34;54.20;;;27.08;;
44989;SDS011;30723;51.206;3.326;2023-03-08T01:13:02;54.95;;;27.98;;
44989;SDS011;30723;51.206;3.326;2023-03-08T01:15:29;56.10;;;29.05;;
44989;SDS011;30723;51.206;3.326;2023-03-08T01:17:59;61.83;;;29.77;;
44989;SDS011;30723;51.206;3.326;2023-03-08T01:20:26;55.95;;;28.58;;
44989;SDS011;30723;51.206;3.326;2023-03-08T01:22:52;57.85;;;28.95;;
44989;SDS011;30723;51.206;3.326;2023-03-08T01:25:19;56.75;;;28.25;;
44989;SDS011;30723;51.206;3.326;2023-03-08T01:27:45;60.92;;;29.83;;
44989;SDS011;30723;51.206;3.326;2023-03-08T01:30:11;59.53;;;29.42;;
44989;SDS011;30723;51.206;3.326;2023-03-08T01:32:39;56.50;;;26.92;;
44989;SDS011;30723;51.206;3.326;2023-03-08T01:35:05;59.15;;;26.70;;
44989;SDS011;30723;51.206;3.326;2023-03-08T01:37:33;59.67;;;28.67;;
44989;SDS011;30723;51.206;3.326;2023-03-08T01:40:00;61.08;;;27.90;;
44989;SDS011;30723;51.206;3.326;2023-03-08T01:42:27;62.92;;;29.63;;
44989;SDS011;30723;51.206;3.326;2023-03-08T01:45:05;58.78;;;28.88;;
44989;SDS011;30723;51.206;3.326;2023-03-08T01:47:53;56.10;;;27.98;;
44989;SDS011;30723;51.206;3.326;2023-03-08T01:50:18;52.08;;;27.02;;
44989;SDS011;30723;51.206;3.326;2023-03-08T01:52:47;60.97;;;28.33;;
44989;SDS011;30723;51.206;3.326;2023-03-08T01:55:17;61.22;;;26.60;;
44989;SDS011;30723;51.206;3.326;2023-03-08T01:57:48;54.72;;;27.15;;
44989;SDS011;30723;51.206;3.326;2023-03-08T02:00:31;50.58;;;25.90;;
44989;SDS011;30723;51.206;3.326;2023-03-08T02:02:59;54.40;;;26.23;;
44989;SDS011;30723;51.206;3.326;2023-03-08T02:05:28;50.42;;;24.40;;
44989;SDS011;30723;51.206;3.326;2023-03-08T02:07:56;48.72;;;24.67;;
44989;SDS011;30723;51.206;3.326;2023-03-08T02:10:23;46.63;;;23.58;;
44989;SDS011;30723;51.206;3.326;2023-03-08T02:12:48;49.30;;;22.20;;
44989;SDS011;30723;51.206;3.326;2023-03-08T02:15:17;43.50;;;22.58;;
44989;SDS011;30723;51.206;3.326;2023-03-08T02:17:45;47.33;;;22.60;;
44989;SDS011;30723;51.206;3.326;2023-03-08T02:22:42;40.05;;;19.45;;
44989;SDS011;30723;51.206;3.326;2023-03-08T02:25:14;40.83;;;20.75;;
44989;SDS011;30723;51.206;3.326;2023-03-08T02:27:39;43.53;;;19.77;;
44989;SDS011;30723;51.206;3.326;2023-03-08T02:30:06;35.08;;;17.52;;
44989;SDS011;30723;51.206;3.326;2023-03-08T02:32:36;35.70;;;18.33;;
44989;SDS011;30723;51.206;3.326;2023-03-08T02:35:03;32.85;;;17.08;;
44989;SDS011;30723;51.206;3.326;2023-03-08T02:37:30;34.53;;;17.40;;
44989;SDS011;30723;51.206;3.326;2023-03-08T02:39:57;40.03;;;18.42;;
44989;SDS011;30723;51.206;3.326;2023-03-08T02:42:24;31.30;;;16.88;;
44989;SDS011;30723;51.206;3.326;2023-03-08T02:44:50;37.55;;;19.17;;
44989;SDS011;30723;51.206;3.326;2023-03-08T02:47:16;31.92;;;16.80;;
44989;SDS011;30723;51.206;3.326;2023-03-08T02:49:43;34.10;;;16.70;;
44989;SDS011;30723;51.206;3.326;2023-03-08T02:52:09;32.95;;;16.88;;
44989;SDS011;30723;51.206;3.326;2023-03-08T02:54:36;29.38;;;16.63;;
44989;SDS011;30723;51.206;3.326;2023-03-08T02:57:02;34.92;;;17.77;;
44989;SDS011;30723;51.206;3.326;2023-03-08T02:59:29;31.60;;;17.23;;
44989;SDS011;30723;51.206;3.326;2023-03-08T03:01:56;34.67;;;17.80;;
44989;SDS011;30723;51.206;3.326;2023-03-08T03:04:22;30.25;;;17.13;;
44989;SDS011;30723;51.206;3.326;2023-03-08T03:06:48;33.00;;;17.10;;
44989;SDS011;30723;51.206;3.326;2023-03-08T03:09:14;28.95;;;15.20;;
44989;SDS011;30723;51.206;3.326;2023-03-08T03:11:41;30.60;;;16.40;;
44989;SDS011;30723;51.206;3.326;2023-03-08T03:14:08;30.40;;;16.30;;
44989;SDS011;30723;51.206;3.326;2023-03-08T03:16:35;28.00;;;15.82;;
44989;SDS011;30723;51.206;3.326;2023-03-08T03:19:02;32.13;;;16.25;;
44989;SDS011;30723;51.206;3.326;2023-03-08T03:21:28;29.77;;;15.75;;
44989;SDS011;30723;51.206;3.326;2023-03-08T03:23:54;27.58;;;15.50;;
44989;SDS011;30723;51.206;3.326;2023-03-08T03:26:23;34.45;;;17.88;;
44989;SDS011;30723;51.206;3.326;2023-03-08T03:28:50;30.00;;;16.67;;
44989;SDS011;30723;51.206;3.326;2023-03-08T03:31:20;31.27;;;17.10;;
44989;SDS011;30723;51.206;3.326;2023-03-08T03:33:48;36.60;;;17.73;;
44989;SDS011;30723;51.206;3.326;2023-03-08T03:36:17;33.45;;;16.25;;
44989;SDS011;30723;51.206;3.326;2023-03-08T03:38:45;29.15;;;15.00;;
44989;SDS011;30723;51.206;3.326;2023-03-08T03:41:14;35.70;;;17.40;;
44989;SDS011;30723;51.206;3.326;2023-03-08T03:43:43;28.98;;;15.80;;
44989;SDS011;30723;51.206;3.326;2023-03-08T03:46:11;27.45;;;14.57;;
44989;SDS011;30723;51.206;3.326;2023-03-08T03:48:40;26.27;;;14.50;;
44989;SDS011;30723;51.206;3.326;2023-03-08T03:51:08;26.88;;;14.00;;
44989;SDS011;30723;51.206;3.326;2023-03-08T03:53:37;31.48;;;16.52;;
44989;SDS011;30723;51.206;3.326;2023-03-08T03:58:30;23.63;;;13.15;;
44989;SDS011;30723;51.206;3.326;2023-03-08T04:00:57;25.23;;;13.27;;
44989;SDS011;30723;51.206;3.326;2023-03-08T04:03:24;26.02;;;14.73;;
44989;SDS011;30723;51.206;3.326;2023-03-08T04:05:51;22.35;;;12.07;;
44989;SDS011;30723;51.206;3.326;2023-03-08T04:08:17;21.23;;;12.85;;
44989;SDS011;30723;51.206;3.326;2023-03-08T04:10:43;21.73;;;12.70;;
44989;SDS011;30723;51.206;3.326;2023-03-08T04:13:10;22.40;;;12.32;;
44989;SDS011;30723;51.206;3.326;2023-03-08T04:15:37;26.33;;;13.32;;
44989;SDS011;30723;51.206;3.326;2023-03-08T04:18:03;27.10;;;14.02;;
44989;SDS011;30723;51.206;3.326;2023-03-08T04:20:30;26.42;;;14.18;;
44989;SDS011;30723;51.206;3.326;2023-03-08T04:22:56;23.77;;;13.90;;
44989;SDS011;30723;51.206;3.326;2023-03-08T04:25:21;25.95;;;14.52;;
44989;SDS011;30723;51.206;3.326;2023-03-08T04:27:47;31.80;;;17.30;;
44989;SDS011;30723;51.206;3.326;2023-03-08T04:30:13;30.73;;;16.25;;
44989;SDS011;30723;51.206;3.326;2023-03-08T04:32:39;35.60;;;17.45;;
44989;SDS011;30723;51.206;3.326;2023-03-08T04:35:06;31.48;;;17.10;;
44989;SDS011;30723;51.206;3.326;2023-03-08T04:37:33;28.23;;;16.98;;
44989;SDS011;30723;51.206;3.326;2023-03-08T04:40:01;29.25;;;15.70;;
44989;SDS011;30723;51.206;3.326;2023-03-08T04:42:31;29.50;;;16.10;;
44989;SDS011;30723;51.206;3.326;2023-03-08T04:44:57;31.60;;;16.00;;
44989;SDS011;30723;51.206;3.326;2023-03-08T04:47:24;30.08;;;16.13;;
44989;SDS011;30723;51.206;3.326;2023-03-08T04:49:50;34.83;;;17.30;;
44989;SDS011;30723;51.206;3.326;2023-03-08T04:52:17;42.95;;;20.65;;
44989;SDS011;30723;51.206;3.326;2023-03-08T04:54:43;47.10;;;21.75;;
44989;SDS011;30723;51.206;3.326;2023-03-08T04:57:10;43.25;;;19.30;;
44989;SDS011;30723;51.206;3.326;2023-03-08T04:59:36;36.92;;;19.38;;
44989;SDS011;30723;51.206;3.326;2023-03-08T05:02:03;36.08;;;16.25;;
44989;SDS011;30723;51.206;3.326;2023-03-08T05:04:29;26.55;;;14.50;;
44989;SDS011;30723;51.206;3.326;2023-03-08T05:06:55;34.08;;;16.38;;
44989;SDS011;30723;51.206;3.326;2023-03-08T05:09:22;30.63;;;14.90;;
44989;SDS011;30723;51.206;3.326;2023-03-08T05:11:49;33.05;;;17.00;;
44989;SDS011;30723;51.206;3.326;2023-03-08T05:14:15;30.70;;;16.65;;
44989;SDS011;30723;51.206;3.326;2023-03-08T05:16:42;29.85;;;15.10;;
44989;SDS011;30723;51.206;3.326;2023-03-08T05:19:08;34.30;;;17.05;;
44989;SDS011;30723;51.206;3.326;2023-03-08T05:21:33;29.95;;;16.73;;
44989;SDS011;30723;51.206;3.326;2023-03-08T05:24:00;29.15;;;15.55;;
44989;SDS011;30723;51.206;3.326;2023-03-08T05:26:27;29.13;;;15.88;;
44989;SDS011;30723;51.206;3.326;2023-03-08T05:28:54;28.45;;;15.70;;
44989;SDS011;30723;51.206;3.326;2023-03-08T05:31:21;29.35;;;14.70;;
44989;SDS011;30723;51.206;3.326;2023-03-08T05:33:50;29.20;;;15.15;;
44989;SDS011;30723;51.206;3.326;2023-03-08T05:36:17;26.15;;;14.43;;
44989;SDS011;30723;51.206;3.326;2023-03-08T05:38:44;29.98;;;16.17;;
44989;SDS011;30723;51.206;3.326;2023-03-08T05:41:13;29.73;;;15.85;;
44989;SDS011;30723;51.206;3.326;2023-03-08T05:43:41;29.25;;;15.32;;
44989;SDS011;30723;51.206;3.326;2023-03-08T05:46:10;29.15;;;15.70;;
44989;SDS011;30723;51.206;3.326;2023-03-08T05:48:37;33.67;;;16.40;;
44989;SDS011;30723;51.206;3.326;2023-03-08T05:51:04;31.25;;;15.38;;
44989;SDS011;30723;51.206;3.326;2023-03-08T05:53:36;28.20;;;15.13;;
44989;SDS011;30723;51.206;3.326;2023-03-08T05:56:13;27.52;;;13.35;;
44989;SDS011;30723;51.206;3.326;2023-03-08T05:58:46;27.23;;;15.10;;
44989;SDS011;30723;51.206;3.326;2023-03-08T06:01:20;27.17;;;14.75;;
44989;SDS011;30723;51.206;3.326;2023-03-08T06:03:49;28.48;;;15.85;;
44989;SDS011;30723;51.206;3.326;2023-03-08T06:06:18;26.58;;;15.80;;
44989;SDS011;30723;51.206;3.326;2023-03-08T06:08:45;30.02;;;15.95;;
44989;SDS011;30723;51.206;3.326;2023-03-08T06:11:11;46.40;;;24.77;;
44989;SDS011;30723;51.206;3.326;2023-03-08T06:13:39;40.45;;;22.92;;
44989;SDS011;30723;51.206;3.326;2023-03-08T06:16:06;25.50;;;14.10;;
44989;SDS011;30723;51.206;3.326;2023-03-08T06:18:34;40.55;;;23.55;;
44989;SDS011;30723;51.206;3.326;2023-03-08T06:21:03;31.40;;;18.60;;
44989;SDS011;30723;51.206;3.326;2023-03-08T06:23:35;34.08;;;17.92;;
44989;SDS011;30723;51.206;3.326;2023-03-08T06:26:03;33.83;;;17.33;;
44989;SDS011;30723;51.206;3.326;2023-03-08T06:28:31;33.28;;;18.55;;
44989;SDS011;30723;51.206;3.326;2023-03-08T06:30:58;32.63;;;17.35;;
44989;SDS011;30723;51.206;3.326;2023-03-08T06:33:33;35.80;;;18.58;;
44989;SDS011;30723;51.206;3.326;2023-03-08T06:36:00;35.63;;;18.58;;
44989;SDS011;30723;51.206;3.326;2023-03-08T06:38:37;33.45;;;16.95;;
44989;SDS011;30723;51.206;3.326;2023-03-08T06:41:05;31.90;;;17.02;;
44989;SDS011;30723;51.206;3.326;2023-03-08T06:43:32;30.83;;;18.88;;
44989;SDS011;30723;51.206;3.326;2023-03-08T06:46:06;29.40;;;16.60;;
44989;SDS011;30723;51.206;3.326;2023-03-08T06:48:35;35.35;;;17.00;;
44989;SDS011;30723;51.206;3.326;2023-03-08T06:51:02;23.55;;;14.65;;
44989;SDS011;30723;51.206;3.326;2023-03-08T06:53:29;27.58;;;15.60;;
44989;SDS011;30723;51.206;3.326;2023-03-08T06:55:56;27.05;;;16.08;;
44989;SDS011;30723;51.206;3.326;2023-03-08T06:58:26;29.38;;;16.00;;
44989;SDS011;30723;51.206;3.326;2023-03-08T07:00:53;29.38;;;18.52;;
44989;SDS011;30723;51.206;3.326;2023-03-08T07:03:20;28.98;;;17.30;;
44989;SDS011;30723;51.206;3.326;2023-03-08T07:05:47;23.25;;;14.25;;
44989;SDS011;30723;51.206;3.326;2023-03-08T07:08:13;23.65;;;12.95;;
44989;SDS011;30723;51.206;3.326;2023-03-08T07:10:40;26.48;;;14.25;;
44989;SDS011;30723;51.206;3.326;2023-03-08T07:13:07;24.65;;;14.65;;
44989;SDS011;30723;51.206;3.326;2023-03-08T07:15:33;20.50;;;12.05;;
44989;SDS011;30723;51.206;3.326;2023-03-08T07:18:03;19.75;;;11.90;;
44989;SDS011;30723;51.206;3.326;2023-03-08T07:20:30;23.48;;;13.77;;
44989;SDS011;30723;51.206;3.326;2023-03-08T07:22:57;26.60;;;17.58;;
44989;SDS011;30723;51.206;3.326;2023-03-08T07:25:25;25.58;;;12.75;;
44989;SDS011;30723;51.206;3.326;2023-03-08T07:27:51;24.83;;;14.93;;
44989;SDS011;30723;51.206;3.326;2023-03-08T07:30:18;25.45;;;13.70;;
44989;SDS011;30723;51.206;3.326;2023-03-08T07:32:45;23.52;;;13.93;;
44989;SDS011;30723;51.206;3.326;2023-03-08T07:35:12;23.08;;;14.63;;
44989;SDS011;30723;51.206;3.326;2023-03-08T07:37:39;21.55;;;13.40;;
44989;SDS011;30723;51.206;3.326;2023-03-08T07:40:10;23.27;;;14.50;;
44989;SDS011;30723;51.206;3.326;2023-03-08T07:42:40;17.08;;;11.20;;
44989;SDS011;30723;51.206;3.326;2023-03-08T07:45:07;20.55;;;12.60;;
44989;SDS011;30723;51.206;3.326;2023-03-08T07:47:36;22.60;;;12.93;;
44989;SDS011;30723;51.206;3.326;2023-03-08T07:50:03;16.55;;;9.95;;
44989;SDS011;30723;51.206;3.326;2023-03-08T07:52:30;22.23;;;12.77;;
44989;SDS011;30723;51.206;3.326;2023-03-08T07:54:56;25.98;;;17.00;;
44989;SDS011;30723;51.206;3.326;2023-03-08T07:57:22;25.90;;;15.25;;
44989;SDS011;30723;51.206;3.326;2023-03-08T07:59:49;24.98;;;13.85;;
44989;SDS011;30723;51.206;3.326;2023-03-08T08:02:15;25.48;;;15.60;;
44989;SDS011;30723;51.206;3.326;2023-03-08T08:04:41;27.40;;;17.27;;
44989;SDS011;30723;51.206;3.326;2023-03-08T08:07:10;32.33;;;20.60;;
44989;SDS011;30723;51.206;3.326;2023-03-08T08:09:38;30.17;;;19.17;;
44989;SDS011;30723;51.206;3.326;2023-03-08T08:12:06;31.48;;;17.45;;
44989;SDS011;30723;51.206;3.326;2023-03-08T08:14:33;31.33;;;18.55;;
44989;SDS011;30723;51.206;3.326;2023-03-08T08:17:00;29.33;;;17.08;;
44989;SDS011;30723;51.206;3.326;2023-03-08T08:19:26;28.33;;;15.60;;
44989;SDS011;30723;51.206;3.326;2023-03-08T08:21:53;26.35;;;15.27;;
44989;SDS011;30723;51.206;3.326;2023-03-08T08:24:19;31.52;;;14.98;;
44989;SDS011;30723;51.206;3.326;2023-03-08T08:26:46;30.58;;;14.80;;
44989;SDS011;30723;51.206;3.326;2023-03-08T08:29:13;24.10;;;13.52;;
44989;SDS011;30723;51.206;3.326;2023-03-08T08:31:40;20.15;;;12.73;;
44989;SDS011;30723;51.206;3.326;2023-03-08T08:34:05;22.80;;;14.25;;
44989;SDS011;30723;51.206;3.326;2023-03-08T08:36:31;22.73;;;12.20;;
44989;SDS011;30723;51.206;3.326;2023-03-08T08:38:58;27.00;;;15.10;;
44989;SDS011;30723;51.206;3.326;2023-03-08T08:41:24;25.08;;;14.05;;
44989;SDS011;30723;51.206;3.326;2023-03-08T08:43:50;21.88;;;11.88;;
44989;SDS011;30723;51.206;3.326;2023-03-08T08:46:16;27.13;;;13.73;;
44989;SDS011;30723;51.206;3.326;2023-03-08T08:48:43;21.80;;;11.82;;
44989;SDS011;30723;51.206;3.326;2023-03-08T08:51:10;27.05;;;14.02;;
44989;SDS011;30723;51.206;3.326;2023-03-08T08:53:37;24.02;;;12.10;;
44989;SDS011;30723;51.206;3.326;2023-03-08T08:56:11;15.00;;;8.45;;
44989;SDS011;30723;51.206;3.326;2023-03-08T08:58:42;18.70;;;10.48;;
44989;SDS011;30723;51.206;3.326;2023-03-08T09:03:47;16.27;;;8.57;;
44989;SDS011;30723;51.206;3.326;2023-03-08T09:06:14;15.85;;;8.98;;
44989;SDS011;30723;51.206;3.326;2023-03-08T09:08:49;17.17;;;11.45;;
44989;SDS011;30723;51.206;3.326;2023-03-08T09:11:16;20.38;;;11.55;;
44989;SDS011;30723;51.206;3.326;2023-03-08T09:13:43;18.00;;;11.00;;
44989;SDS011;30723;51.206;3.326;2023-03-08T09:16:19;15.95;;;10.25;;
44989;SDS011;30723;51.206;3.326;2023-03-08T09:18:49;13.50;;;9.07;;
44989;SDS011;30723;51.206;3.326;2023-03-08T09:21:16;19.20;;;10.73;;
44989;SDS011;30723;51.206;3.326;2023-03-08T09:23:43;17.60;;;11.18;;
44989;SDS011;30723;51.206;3.326;2023-03-08T09:26:09;18.05;;;11.27;;
44989;SDS011;30723;51.206;3.326;2023-03-08T09:28:35;19.02;;;11.20;;
44989;SDS011;30723;51.206;3.326;2023-03-08T09:31:04;20.52;;;13.45;;
44989;SDS011;30723;51.206;3.326;2023-03-08T09:33:40;23.73;;;13.48;;
44989;SDS011;30723;51.206;3.326;2023-03-08T09:36:09;23.02;;;13.55;;
44989;SDS011;30723;51.206;3.326;2023-03-08T09:38:36;25.80;;;13.10;;
44989;SDS011;30723;51.206;3.326;2023-03-08T09:43:46;25.73;;;15.18;;
44989;SDS011;30723;51.206;3.326;2023-03-08T09:46:33;26.80;;;13.88;;
44989;SDS011;30723;51.206;3.326;2023-03-08T09:49:29;24.52;;;13.73;;
44989;SDS011;30723;51.206;3.326;2023-03-08T09:54:42;25.77;;;13.90;;
44989;SDS011;30723;51.206;3.326;2023-03-08T09:57:12;20.10;;;11.32;;
44989;SDS011;30723;51.206;3.326;2023-03-08T09:59:59;23.75;;;13.75;;
44989;SDS011;30723;51.206;3.326;2023-03-08T10:02:52;23.25;;;14.07;;
44989;SDS011;30723;51.206;3.326;2023-03-08T10:13:41;20.63;;;12.90;;
44989;SDS011;30723;51.206;3.326;2023-03-08T10:16:34;26.00;;;14.68;;
44989;SDS011;30723;51.206;3.326;2023-03-08T10:19:15;25.23;;;14.85;;
44989;SDS011;30723;51.206;3.326;2023-03-08T10:21:50;25.75;;;15.15;;
44989;SDS011;30723;51.206;3.326;2023-03-08T10:27:20;25.02;;;15.05;;
44989;SDS011;30723;51.206;3.326;2023-03-08T10:29:52;22.33;;;14.05;;
44989;SDS011;30723;51.206;3.326;2023-03-08T10:32:19;22.10;;;13.82;;
44989;SDS011;30723;51.206;3.326;2023-03-08T10:34:45;20.77;;;12.45;;
44989;SDS011;30723;51.206;3.326;2023-03-08T10:37:12;23.48;;;13.77;;
44989;SDS011;30723;51.206;3.326;2023-03-08T10:39:51;22.00;;;13.90;;
44989;SDS011;30723;51.206;3.326;2023-03-08T10:42:23;25.45;;;15.02;;
44989;SDS011;30723;51.206;3.326;2023-03-08T10:45:12;24.60;;;14.93;;
44989;SDS011;30723;51.206;3.326;2023-03-08T10:47:53;27.55;;;15.32;;
44989;SDS011;30723;51.206;3.326;2023-03-08T10:50:32;26.65;;;15.05;;
44989;SDS011;30723;51.206;3.326;2023-03-08T10:53:09;22.73;;;13.60;;
44989;SDS011;30723;51.206;3.326;2023-03-08T10:58:26;25.92;;;17.15;;
44989;SDS011;30723;51.206;3.326;2023-03-08T11:00:56;30.15;;;18.25;;
44989;SDS011;30723;51.206;3.326;2023-03-08T11:03:42;31.90;;;19.13;;
44989;SDS011;30723;51.206;3.326;2023-03-08T11:06:12;25.23;;;15.00;;
44989;SDS011;30723;51.206;3.326;2023-03-08T11:08:40;25.30;;;14.77;;
44989;SDS011;30723;51.206;3.326;2023-03-08T11:11:20;34.45;;;19.52;;
44989;SDS011;30723;51.206;3.326;2023-03-08T11:13:47;31.42;;;18.65;;
44989;SDS011;30723;51.206;3.326;2023-03-08T11:27:31;30.88;;;18.95;;
44989;SDS011;30723;51.206;3.326;2023-03-08T11:48:23;30.90;;;18.98;;
44989;SDS011;30723;51.206;3.326;2023-03-08T11:51:11;28.65;;;17.95;;
44989;SDS011;30723;51.206;3.326;2023-03-08T11:54:40;35.58;;;21.85;;
44989;SDS011;30723;51.206;3.326;2023-03-08T11:57:42;38.95;;;21.95;;
44989;SDS011;30723;51.206;3.326;2023-03-08T12:00:36;37.58;;;23.00;;
44989;SDS011;30723;51.206;3.326;2023-03-08T12:03:10;34.92;;;21.33;;
44989;SDS011;30723;51.206;3.326;2023-03-08T12:08:23;35.65;;;21.60;;
44989;SDS011;30723;51.206;3.326;2023-03-08T12:10:57;37.45;;;23.40;;
44989;SDS011;30723;51.206;3.326;2023-03-08T12:13:31;36.90;;;23.23;;
44989;SDS011;30723;51.206;3.326;2023-03-08T12:21:47;38.40;;;22.42;;
44989;SDS011;30723;51.206;3.326;2023-03-08T12:27:03;38.65;;;23.70;;
44989;SDS011;30723;51.206;3.326;2023-03-08T12:29:50;40.90;;;24.00;;
44989;SDS011;30723;51.206;3.326;2023-03-08T12:32:41;38.40;;;24.08;;
44989;SDS011;30723;51.206;3.326;2023-03-08T12:35:32;40.88;;;24.05;;
44989;SDS011;30723;51.206;3.326;2023-03-08T12:38:04;48.70;;;26.55;;
44989;SDS011;30723;51.206;3.326;2023-03-08T12:40:53;43.58;;;25.80;;
44989;SDS011;30723;51.206;3.326;2023-03-08T12:43:45;41.10;;;25.77;;
44989;SDS011;30723;51.206;3.326;2023-03-08T12:47:15;42.72;;;26.10;;
44989;SDS011;30723;51.206;3.326;2023-03-08T12:49:48;41.03;;;26.02;;
44989;SDS011;30723;51.206;3.326;2023-03-08T12:52:31;42.22;;;24.55;;
44989;SDS011;30723;51.206;3.326;2023-03-08T12:55:18;39.28;;;23.02;;
44989;SDS011;30723;51.206;3.326;2023-03-08T12:58:02;43.13;;;25.58;;
44989;SDS011;30723;51.206;3.326;2023-03-08T13:00:55;42.67;;;25.35;;
44989;SDS011;30723;51.206;3.326;2023-03-08T13:03:26;41.85;;;24.67;;
44989;SDS011;30723;51.206;3.326;2023-03-08T13:06:12;43.75;;;26.42;;
44989;SDS011;30723;51.206;3.326;2023-03-08T13:20:00;47.75;;;27.92;;
44989;SDS011;30723;51.206;3.326;2023-03-08T13:28:24;47.22;;;28.00;;
44989;SDS011;30723;51.206;3.326;2023-03-08T13:30:58;50.10;;;30.30;;
44989;SDS011;30723;51.206;3.326;2023-03-08T13:33:27;47.75;;;27.90;;
44989;SDS011;30723;51.206;3.326;2023-03-08T13:36:04;47.13;;;28.42;;
44989;SDS011;30723;51.206;3.326;2023-03-08T13:38:38;49.90;;;29.30;;
44989;SDS011;30723;51.206;3.326;2023-03-08T13:41:05;47.83;;;28.73;;
44989;SDS011;30723;51.206;3.326;2023-03-08T13:43:31;49.83;;;29.20;;
44989;SDS011;30723;51.206;3.326;2023-03-08T13:45:59;54.20;;;31.15;;
44989;SDS011;30723;51.206;3.326;2023-03-08T13:48:28;52.30;;;30.02;;
44989;SDS011;30723;51.206;3.326;2023-03-08T13:50:57;53.08;;;29.85;;
44989;SDS011;30723;51.206;3.326;2023-03-08T13:53:24;48.53;;;29.55;;
44989;SDS011;30723;51.206;3.326;2023-03-08T13:55:54;53.13;;;30.67;;
44989;SDS011;30723;51.206;3.326;2023-03-08T13:58:38;52.67;;;32.25;;
44989;SDS011;30723;51.206;3.326;2023-03-08T14:01:11;53.72;;;30.23;;
44989;SDS011;30723;51.206;3.326;2023-03-08T14:03:40;53.27;;;31.17;;
44989;SDS011;30723;51.206;3.326;2023-03-08T14:06:17;49.90;;;31.08;;
44989;SDS011;30723;51.206;3.326;2023-03-08T14:08:45;52.28;;;30.88;;
44989;SDS011;30723;51.206;3.326;2023-03-08T14:11:14;57.38;;;31.65;;
44989;SDS011;30723;51.206;3.326;2023-03-08T14:13:49;50.42;;;29.13;;
44989;SDS011;30723;51.206;3.326;2023-03-08T14:16:24;55.65;;;32.25;;
44989;SDS011;30723;51.206;3.326;2023-03-08T14:18:51;52.83;;;31.27;;
44989;SDS011;30723;51.206;3.326;2023-03-08T14:21:20;57.50;;;31.92;;
44989;SDS011;30723;51.206;3.326;2023-03-08T14:23:51;55.13;;;31.33;;
44989;SDS011;30723;51.206;3.326;2023-03-08T14:26:51;60.47;;;33.65;;
44989;SDS011;30723;51.206;3.326;2023-03-08T14:34:50;56.17;;;33.22;;
44989;SDS011;30723;51.206;3.326;2023-03-08T14:37:28;59.72;;;33.05;;
44989;SDS011;30723;51.206;3.326;2023-03-08T14:40:06;58.88;;;34.33;;
44989;SDS011;30723;51.206;3.326;2023-03-08T14:42:47;56.53;;;32.92;;
44989;SDS011;30723;51.206;3.326;2023-03-08T14:45:18;58.90;;;33.25;;
44989;SDS011;30723;51.206;3.326;2023-03-08T14:47:51;62.80;;;34.83;;
44989;SDS011;30723;51.206;3.326;2023-03-08T14:50:27;59.05;;;33.85;;
44989;SDS011;30723;51.206;3.326;2023-03-08T14:52:58;59.45;;;34.63;;
44989;SDS011;30723;51.206;3.326;2023-03-08T14:55:26;62.28;;;34.17;;
44989;SDS011;30723;51.206;3.326;2023-03-08T14:57:58;55.75;;;33.58;;
44989;SDS011;30723;51.206;3.326;2023-03-08T15:00:26;59.13;;;35.10;;
44989;SDS011;30723;51.206;3.326;2023-03-08T15:02:53;61.70;;;35.83;;
44989;SDS011;30723;51.206;3.326;2023-03-08T15:05:20;63.70;;;35.03;;
44989;SDS011;30723;51.206;3.326;2023-03-08T15:07:48;60.38;;;33.45;;
44989;SDS011;30723;51.206;3.326;2023-03-08T15:12:53;61.70;;;35.78;;
44989;SDS011;30723;51.206;3.326;2023-03-08T15:15:19;62.15;;;34.88;;
44989;SDS011;30723;51.206;3.326;2023-03-08T15:17:46;63.08;;;35.33;;
44989;SDS011;30723;51.206;3.326;2023-03-08T15:20:12;58.75;;;33.55;;
44989;SDS011;30723;51.206;3.326;2023-03-08T15:22:40;59.20;;;33.22;;
44989;SDS011;30723;51.206;3.326;2023-03-08T15:25:12;56.13;;;34.03;;
44989;SDS011;30723;51.206;3.326;2023-03-08T15:27:56;58.38;;;35.17;;
44989;SDS011;30723;51.206;3.326;2023-03-08T15:30:23;57.63;;;34.20;;
44989;SDS011;30723;51.206;3.326;2023-03-08T15:32:50;61.28;;;36.88;;
44989;SDS011;30723;51.206;3.326;2023-03-08T15:35:16;57.30;;;32.33;;
44989;SDS011;30723;51.206;3.326;2023-03-08T15:37:44;68.47;;;36.63;;
44989;SDS011;30723;51.206;3.326;2023-03-08T15:40:11;69.32;;;37.38;;
44989;SDS011;30723;51.206;3.326;2023-03-08T15:42:48;61.38;;;36.92;;
44989;SDS011;30723;51.206;3.326;2023-03-08T15:45:15;64.43;;;36.83;;
44989;SDS011;30723;51.206;3.326;2023-03-08T15:47:42;66.78;;;36.53;;
44989;SDS011;30723;51.206;3.326;2023-03-08T15:50:19;62.42;;;35.22;;
44989;SDS011;30723;51.206;3.326;2023-03-08T15:52:45;64.53;;;36.72;;
44989;SDS011;30723;51.206;3.326;2023-03-08T15:55:12;73.82;;;37.47;;
44989;SDS011;30723;51.206;3.326;2023-03-08T15:57:39;69.13;;;36.95;;
44989;SDS011;30723;51.206;3.326;2023-03-08T16:00:07;69.13;;;39.17;;
44989;SDS011;30723;51.206;3.326;2023-03-08T16:02:37;69.00;;;38.22;;
44989;SDS011;30723;51.206;3.326;2023-03-08T16:05:05;71.50;;;37.22;;
44989;SDS011;30723;51.206;3.326;2023-03-08T16:07:32;68.65;;;38.53;;
44989;SDS011;30723;51.206;3.326;2023-03-08T16:09:59;68.72;;;39.72;;
44989;SDS011;30723;51.206;3.326;2023-03-08T16:12:25;68.40;;;40.35;;